CXCRS SURV-SUMU
Flight info
| Callsign | CXCRS |
|---|---|
| Flight time | N/A |
| Altitude | 16000 |
| Route | TEMAL W15 REGOV |
| Aircraft | BE20/L-SBGRY/S |
Departure
| Time | 2026-04-25 22:14 |
|---|---|
| Airport | Pres. Gral. Óscar D. Gestido Binational Airport (SURV) |
Arrival
| Time | N/A |
|---|---|
| Airport | Carrasco General Cesáreo L. Berisso International Airport (SUMU) |
| Time | Latitude | Longitude | Altitude | Speed | Heading |
|---|---|---|---|---|---|
| 2026-04-25 22:09 | -30.96944 | -55.47377 | 676 ft | 0 kts | 40° |
| 2026-04-25 22:13 | -30.96936 | -55.47274 | 636 ft | 13 kts | 103° |
| 2026-04-25 22:13 | -30.96942 | -55.47243 | 634 ft | 9 kts | 109° |
| 2026-04-25 22:13 | -30.97059 | -55.47184 | 631 ft | 35 kts | 205° |
| 2026-04-25 22:14 | -30.97348 | -55.47492 | 626 ft | 97 kts | 222° |
| 2026-04-25 22:14 | -30.97975 | -55.48146 | 743 ft | 138 kts | 221° |
| 2026-04-25 22:14 | -30.98762 | -55.48925 | 1292 ft | 140 kts | 220° |
| 2026-04-25 22:14 | -30.99457 | -55.49535 | 2268 ft | 127 kts | 206° |
| 2026-04-25 22:15 | -31.00355 | -55.49946 | 2691 ft | 152 kts | 202° |
| 2026-04-25 22:15 | -31.01374 | -55.50489 | 3174 ft | 166 kts | 206° |
| 2026-04-25 22:15 | -31.02414 | -55.51072 | 3834 ft | 166 kts | 206° |
| 2026-04-25 22:16 | -31.04580 | -55.52290 | 5155 ft | 170 kts | 207° |
| 2026-04-25 22:16 | -31.05646 | -55.52892 | 5812 ft | 171 kts | 207° |
| 2026-04-25 22:16 | -31.06356 | -55.53291 | 6258 ft | 172 kts | 208° |
| 2026-04-25 22:16 | -31.07437 | -55.53902 | 6879 ft | 173 kts | 208° |
| 2026-04-25 22:17 | -31.08876 | -55.54716 | 7691 ft | 174 kts | 208° |
| 2026-04-25 22:17 | -31.09972 | -55.55336 | 8305 ft | 176 kts | 208° |
| 2026-04-25 22:17 | -31.11076 | -55.55959 | 8919 ft | 177 kts | 208° |
| 2026-04-25 22:17 | -31.12189 | -55.56588 | 9595 ft | 178 kts | 209° |
| 2026-04-25 22:18 | -31.12930 | -55.57007 | 10037 ft | 179 kts | 209° |
| 2026-04-25 22:18 | -31.14006 | -55.57614 | 10860 ft | 166 kts | 211° |
| 2026-04-25 22:18 | -31.15022 | -55.58187 | 11648 ft | 159 kts | 212° |
| 2026-04-25 22:18 | -31.16000 | -55.58738 | 12400 ft | 154 kts | 213° |
| 2026-04-25 22:19 | -31.16952 | -55.59276 | 13144 ft | 150 kts | 214° |
| 2026-04-25 22:19 | -31.17887 | -55.59800 | 13873 ft | 148 kts | 215° |
| 2026-04-25 22:19 | -31.19112 | -55.60472 | 14761 ft | 146 kts | 216° |
| 2026-04-25 22:19 | -31.20033 | -55.60970 | 15385 ft | 146 kts | 217° |
| 2026-04-25 22:20 | -31.20643 | -55.61296 | 15789 ft | 145 kts | 217° |
| 2026-04-25 22:20 | -31.21565 | -55.61778 | 16398 ft | 145 kts | 218° |
| 2026-04-25 22:20 | -31.22482 | -55.62253 | 17005 ft | 144 kts | 219° |
| 2026-04-25 22:20 | -31.23399 | -55.62723 | 17609 ft | 144 kts | 220° |
| 2026-04-25 22:21 | -31.24352 | -55.63223 | 17970 ft | 161 kts | 220° |
| 2026-04-25 22:21 | -31.25465 | -55.63880 | 17667 ft | 206 kts | 220° |
| 2026-04-25 22:21 | -31.26843 | -55.64812 | 17068 ft | 249 kts | 219° |
| 2026-04-25 22:21 | -31.28390 | -55.65926 | 16501 ft | 278 kts | 219° |
| 2026-04-25 22:22 | -31.30082 | -55.67188 | 16027 ft | 296 kts | 219° |
| 2026-04-25 22:22 | -31.31892 | -55.68360 | 15998 ft | 301 kts | 208° |
| 2026-04-25 22:22 | -31.33895 | -55.69110 | 15992 ft | 302 kts | 204° |
| 2026-04-25 22:22 | -31.35858 | -55.69916 | 15994 ft | 296 kts | 210° |
| 2026-04-25 22:23 | -31.37687 | -55.70984 | 15991 ft | 292 kts | 215° |
| 2026-04-25 22:23 | -31.39475 | -55.72112 | 15995 ft | 292 kts | 213° |
| 2026-04-25 22:23 | -31.41314 | -55.73136 | 15991 ft | 294 kts | 210° |
| 2026-04-25 22:23 | -31.43206 | -55.74055 | 16002 ft | 295 kts | 208° |
| 2026-04-25 22:24 | -31.45079 | -55.74943 | 16023 ft | 294 kts | 209° |